Time;durP1;ratioP1;P1;durP2;ratioP2;P2;SDS_P1;SDS_P2;PMS_P1;PMS_P2;Temp;Humidity;BMP_temperature;BMP_pressure;BME280_temperature;BME280_humidity;BME280_pressure;Samples;Min_cycle;Max_cycle;Signal;HPM_P1;HPM_P2
2022/04/04 00:00:42;;;;;;;9.50;2.05;;;;;;;3.60;94.26;101046.13;4973422;28;20172;-41
2022/04/04 00:03:08;;;;;;;6.38;1.83;;;;;;;3.66;94.10;101045.22;4973275;28;20197;-43
2022/04/04 00:05:34;;;;;;;9.30;2.03;;;;;;;3.59;94.08;101031.16;4973033;28;20210;-42
2022/04/04 00:07:59;;;;;;;10.02;1.95;;;;;;;3.59;93.91;101015.25;4973509;28;20177;-45
2022/04/04 00:10:25;;;;;;;8.30;1.55;;;;;;;3.63;93.87;101017.00;4973069;28;20166;-44
2022/04/04 00:12:50;;;;;;;11.82;2.17;;;;;;;3.55;93.73;101013.50;4973326;28;20225;-43
2022/04/04 00:15:16;;;;;;;7.47;2.05;;;;;;;3.55;94.01;101010.00;4972891;28;20170;-43
2022/04/04 00:17:41;;;;;;;8.65;1.73;;;;;;;3.55;93.92;101005.56;4973443;28;20173;-41
2022/04/04 00:20:08;;;;;;;5.68;1.38;;;;;;;3.53;94.01;100990.56;4973883;28;20174;-43
2022/04/04 00:22:34;;;;;;;7.47;2.03;;;;;;;3.50;94.32;100994.13;4973351;28;20675;-42
2022/04/04 00:25:00;;;;;;;11.48;2.13;;;;;;;3.54;94.39;100998.47;4973624;28;20308;-41
2022/04/04 00:27:25;;;;;;;6.47;2.00;;;;;;;3.45;94.56;100995.91;4973113;28;20209;-42
2022/04/04 00:29:51;;;;;;;6.90;1.77;;;;;;;3.48;94.87;100994.13;4973263;28;20647;-41
2022/04/04 00:32:17;;;;;;;8.05;2.20;;;;;;;3.52;94.75;100987.06;4971864;28;20672;-41
2022/04/04 00:34:43;;;;;;;9.85;2.50;;;;;;;3.51;94.59;100979.97;4972935;28;20181;-43
2022/04/04 00:37:09;;;;;;;5.82;1.85;;;;;;;3.51;94.71;100982.63;4973304;28;20186;-42
2022/04/04 00:39:34;;;;;;;6.75;1.90;;;;;;;3.57;94.70;100961.41;4973078;28;20186;-43
2022/04/04 00:42:00;;;;;;;8.65;2.35;;;;;;;3.55;94.60;100964.94;4972925;28;20166;-42
2022/04/04 00:44:25;;;;;;;6.97;2.05;;;;;;;3.51;94.65;100962.31;4987321;28;20296;-42
2022/04/04 00:46:51;;;;;;;7.55;2.03;;;;;;;3.57;94.44;100945.50;4972709;28;20198;-43
2022/04/04 00:49:17;;;;;;;8.55;2.08;;;;;;;3.46;94.26;100947.34;4972914;28;20637;-42
2022/04/04 00:51:42;;;;;;;10.60;2.13;;;;;;;3.53;94.50;100938.47;5004090;28;20195;-42
2022/04/04 00:54:08;;;;;;;10.02;1.98;;;;;;;3.50;94.24;100923.47;4972994;28;20637;-42
2022/04/04 00:56:37;;;;;;;11.10;2.55;;;;;;;3.47;94.02;100933.22;4972342;28;20186;-40
2022/04/04 00:59:05;;;;;;;8.25;2.55;;;;;;;3.50;93.88;100917.31;4972557;28;20224;-41
2022/04/04 01:01:32;;;;;;;6.18;2.17;;;;;;;3.48;93.56;100912.00;4972732;28;20672;-41
2022/04/04 01:03:58;;;;;;;9.30;1.70;;;;;;;3.55;93.13;100906.69;4972887;28;20649;-41
2022/04/04 01:06:23;;;;;;;7.18;2.13;;;;;;;3.51;92.63;100906.69;4971835;28;20268;-41
2022/04/04 01:08:49;;;;;;;4.57;1.55;;;;;;;3.56;92.54;100898.69;4972322;28;20174;-43
2022/04/04 01:11:15;;;;;;;4.10;1.40;;;;;;;3.60;92.17;100895.13;4972370;28;20174;-43
2022/04/04 01:13:46;;;;;;;4.82;1.45;;;;;;;3.54;92.13;100895.19;5003649;28;20240;-41
2022/04/04 01:16:12;;;;;;;6.65;1.83;;;;;;;3.56;91.94;100888.09;4971966;28;20664;-42
2022/04/04 01:18:37;;;;;;;5.18;1.83;;;;;;;3.58;91.93;100890.75;4972200;28;20189;-42
2022/04/04 01:21:02;;;;;;;11.00;2.30;;;;;;;3.57;91.59;100883.69;4972421;28;20196;-43
2022/04/04 01:23:39;;;;;;;8.32;1.42;;;;;;;3.56;91.54;100874.84;4971821;28;20312;-42
2022/04/04 01:26:04;;;;;;;7.35;1.85;;;;;;;3.63;91.25;100871.28;4971771;28;20210;-42
2022/04/04 01:28:30;;;;;;;5.93;1.98;;;;;;;3.64;90.94;100867.72;4971437;28;20257;-41
2022/04/04 01:30:55;;;;;;;5.78;1.88;;;;;;;3.56;91.02;100866.03;4972319;28;20248;-41
2022/04/04 01:33:21;;;;;;;5.88;2.10;;;;;;;3.54;91.03;100873.97;4972423;28;20170;-43
2022/04/04 01:35:47;;;;;;;9.15;2.05;;;;;;;3.52;91.45;100849.31;4971561;28;20186;-42
2022/04/04 01:38:13;;;;;;;8.95;3.13;;;;;;;3.53;91.86;100848.41;4972227;28;20607;-45
2022/04/04 01:40:38;;;;;;;11.80;2.72;;;;;;;3.51;91.87;100840.47;4972160;28;20172;-42
2022/04/04 01:43:04;;;;;;;5.57;2.35;;;;;;;3.52;91.98;100838.72;5003245;28;20554;-44
2022/04/04 01:48:14;;;;;;;10.32;2.22;;;;;;;3.45;92.51;100832.56;4969027;28;20638;-42
2022/04/04 01:50:40;;;;;;;8.00;2.20;;;;;;;3.41;92.85;100825.56;4969844;28;20243;-43
2022/04/04 01:55:52;;;;;;;9.25;2.28;;;;;;;3.50;92.94;100816.66;4951068;28;20289;-42
2022/04/04 01:58:17;;;;;;;6.03;2.55;;;;;;;3.46;92.95;100822.88;4952001;29;20198;-42
2022/04/04 02:00:44;;;;;;;7.63;2.50;;;;;;;3.45;93.20;100816.66;4958052;28;20657;-42
2022/04/04 02:03:10;;;;;;;10.40;2.22;;;;;;;3.47;93.33;100814.00;4971582;28;20209;-42
2022/04/04 02:05:35;;;;;;;6.25;2.40;;;;;;;3.45;93.25;100808.72;4970490;28;20237;-42
2022/04/04 02:08:02;;;;;;;10.13;2.75;;;;;;;3.40;93.54;100799.09;4971914;28;20170;-43
2022/04/04 02:10:27;;;;;;;7.80;2.60;;;;;;;3.33;93.68;100795.63;4971431;28;20189;-43
2022/04/04 02:12:53;;;;;;;9.88;2.60;;;;;;;3.41;93.64;100783.19;4971692;28;20653;-42
2022/04/04 02:15:18;;;;;;;6.70;2.63;;;;;;;3.44;93.66;100776.97;4971427;28;20513;-40
2022/04/04 02:17:44;;;;;;;6.82;2.28;;;;;;;3.38;93.60;100780.56;5002597;28;20186;-44
2022/04/04 02:20:10;;;;;;;8.73;2.70;;;;;;;3.30;93.66;100769.16;4971724;28;20178;-43
2022/04/04 02:22:35;;;;;;;6.30;2.40;;;;;;;3.26;93.89;100762.16;4971681;28;20176;-42
2022/04/04 02:25:01;;;;;;;8.38;2.58;;;;;;;3.26;93.89;100747.13;5002350;28;20201;-41
2022/04/04 02:27:27;;;;;;;3.97;2.50;;;;;;;3.23;94.09;100754.22;4971922;28;20269;-41
2022/04/04 02:29:53;;;;;;;7.63;3.38;;;;;;;3.21;94.13;100748.94;4971336;28;20186;-42
2022/04/04 02:32:19;;;;;;;4.95;3.00;;;;;;;3.28;94.10;100745.34;4971366;28;20281;-42
2022/04/04 02:34:45;;;;;;;11.48;3.97;;;;;;;3.18;94.21;100748.97;4970997;28;20177;-43
2022/04/04 02:37:12;;;;;;;8.75;3.95;;;;;;;3.16;94.32;100739.28;4971557;28;20206;-43
2022/04/04 02:39:38;;;;;;;8.40;4.22;;;;;;;3.10;94.33;100729.63;4971000;28;20672;-42
2022/04/04 02:42:03;;;;;;;6.60;4.72;;;;;;;3.06;94.48;100731.44;4973772;28;20162;-43
2022/04/04 02:44:29;;;;;;;8.55;4.43;;;;;;;3.12;94.35;100722.53;4974915;28;20486;-43
2022/04/04 02:46:54;;;;;;;7.05;3.85;;;;;;;3.06;94.67;100733.19;4974469;28;20718;-43
2022/04/04 02:49:19;;;;;;;9.13;3.88;;;;;;;3.13;94.71;100720.78;4974855;28;20173;-40
2022/04/04 02:51:45;;;;;;;6.38;3.63;;;;;;;3.09;94.62;100710.22;4974789;28;20221;-41
2022/04/04 02:54:11;;;;;;;10.85;3.30;;;;;;;3.06;94.67;100704.06;4975044;28;20527;-41
2022/04/04 02:56:39;;;;;;;8.45;3.20;;;;;;;3.06;94.43;100698.78;4974336;28;20190;-44
2022/04/04 02:59:05;;;;;;;7.82;3.55;;;;;;;3.12;94.16;100687.25;4975308;28;20175;-41
2022/04/04 03:01:30;;;;;;;6.63;3.00;;;;;;;3.03;94.42;100682.94;5005563;28;20186;-43
2022/04/04 03:03:56;;;;;;;6.80;3.35;;;;;;;3.05;94.21;100683.81;4974929;28;20177;-41
2022/04/04 03:06:21;;;;;;;9.20;4.07;;;;;;;3.05;94.08;100679.38;4974362;28;20285;-41
2022/04/04 03:08:47;;;;;;;8.65;3.67;;;;;;;3.06;93.51;100672.31;4990056;28;20270;-41
2022/04/04 03:11:12;;;;;;;7.25;3.50;;;;;;;2.98;93.68;100663.59;4974915;28;20174;-41
2022/04/04 03:13:39;;;;;;;5.03;4.38;;;;;;;3.01;93.57;100663.56;4974074;28;20181;-41
2022/04/04 03:16:04;;;;;;;5.97;3.78;;;;;;;3.00;93.61;100653.88;4973689;28;20202;-42
2022/04/04 03:18:30;;;;;;;4.88;4.03;;;;;;;2.97;93.55;100645.94;4974502;28;20188;-42
2022/04/04 03:20:55;;;;;;;7.05;3.80;;;;;;;2.97;93.43;100654.75;4974562;28;20186;-40
2022/04/04 03:23:22;;;;;;;4.30;3.58;;;;;;;2.96;93.29;100637.13;4974424;28;20185;-40
2022/04/04 03:25:48;;;;;;;11.52;4.00;;;;;;;2.97;93.23;100627.41;4974097;28;20194;-41
2022/04/04 03:28:14;;;;;;;4.45;3.53;;;;;;;2.98;93.22;100622.13;4974672;28;20621;-40
2022/04/04 03:30:39;;;;;;;4.22;3.20;;;;;;;3.00;93.15;100622.13;4974415;28;20214;-42
2022/04/04 03:33:05;;;;;;;5.47;3.28;;;;;;;2.93;93.01;100613.38;4974250;28;20637;-43
2022/04/04 03:35:31;;;;;;;5.95;3.63;;;;;;;2.97;92.85;100599.19;4974026;28;20198;-41
2022/04/04 03:37:59;;;;;;;6.50;3.70;;;;;;;2.92;92.72;100605.44;4974224;28;20206;-43
2022/04/04 03:40:26;;;;;;;6.13;3.50;;;;;;;2.93;92.79;100586.00;4974132;28;20178;-42
2022/04/04 03:42:55;;;;;;;5.72;3.65;;;;;;;2.88;92.69;100592.22;4974101;28;20178;-40
2022/04/04 03:45:21;;;;;;;7.38;3.90;;;;;;;2.93;92.40;100588.66;4971268;28;20217;-43
2022/04/04 03:47:48;;;;;;;7.60;3.70;;;;;;;2.93;91.78;100573.66;4962963;28;20186;-42
2022/04/04 03:50:14;;;;;;;6.88;4.30;;;;;;;2.93;91.98;100546.31;4968753;28;20182;-43
2022/04/04 03:52:41;;;;;;;10.77;4.00;;;;;;;2.91;92.03;100554.28;4973704;28;20245;-43
2022/04/04 03:55:08;;;;;;;7.05;3.58;;;;;;;2.86;92.10;100533.19;4972469;28;20197;-42
2022/04/04 03:57:34;;;;;;;5.07;3.60;;;;;;;2.96;91.58;100525.13;4964889;28;20174;-41
2022/04/04 03:59:59;;;;;;;4.03;3.33;;;;;;;2.85;91.92;100528.75;4973699;28;20273;-42
2022/04/04 04:02:25;;;;;;;5.82;3.75;;;;;;;2.86;91.95;100525.25;4954270;28;20713;-42
2022/04/04 04:04:50;;;;;;;5.22;3.40;;;;;;;2.83;92.07;100525.25;4954311;28;20289;-41
2022/04/04 04:07:18;;;;;;;5.60;3.40;;;;;;;2.75;91.77;100508.59;4953679;28;20198;-41
2022/04/04 04:09:43;;;;;;;5.28;3.63;;;;;;;2.83;91.62;100508.50;4953136;29;20182;-42
2022/04/04 04:12:15;;;;;;;6.32;4.05;;;;;;;2.82;91.37;100488.22;4954041;28;20714;-41
2022/04/04 04:14:41;;;;;;;6.35;3.50;;;;;;;2.74;91.51;100488.31;4953810;28;20170;-42
2022/04/04 04:17:08;;;;;;;6.70;3.92;;;;;;;2.72;91.28;100481.31;4954027;28;20211;-43
2022/04/04 04:22:20;;;;;;;4.72;3.55;;;;;;;2.74;91.02;100461.88;4954118;29;20747;-42
2022/04/04 04:24:45;;;;;;;6.07;3.25;;;;;;;2.77;90.58;100456.53;4953282;28;20199;-42
2022/04/04 04:27:11;;;;;;;4.18;3.75;;;;;;;2.74;90.63;100440.72;4953647;28;20562;-41
2022/04/04 04:29:36;;;;;;;4.30;3.10;;;;;;;2.79;90.28;100443.28;4953212;29;20186;-42
2022/04/04 04:32:02;;;;;;;4.65;3.65;;;;;;;2.77;90.03;100431.84;4954496;28;20197;-41
2022/04/04 04:34:27;;;;;;;5.75;3.60;;;;;;;2.76;90.10;100423.06;4954556;28;20225;-42
2022/04/04 04:36:53;;;;;;;4.63;3.28;;;;;;;2.79;90.04;100420.34;4953737;28;20577;-43
2022/04/04 04:39:18;;;;;;;5.93;3.88;;;;;;;2.74;89.52;100413.41;4953678;28;20258;-42
2022/04/04 04:41:49;;;;;;;5.47;3.85;;;;;;;2.73;89.51;100407.19;4953977;28;20576;-41
2022/04/04 04:44:14;;;;;;;6.93;3.35;;;;;;;2.80;89.12;100395.66;4953921;28;20159;-43
2022/04/04 04:46:40;;;;;;;8.15;3.60;;;;;;;2.85;88.91;100399.13;4953755;28;20221;-42
2022/04/04 04:49:05;;;;;;;4.18;3.65;;;;;;;2.83;88.79;100392.97;4952181;29;20209;-49
2022/04/04 04:51:31;;;;;;;5.28;3.88;;;;;;;2.85;87.99;100366.50;4953154;28;20170;-47
2022/04/04 04:53:56;;;;;;;4.70;4.18;;;;;;;2.81;88.16;100368.31;4952867;28;20179;-46
2022/04/04 04:56:22;;;;;;;5.38;3.75;;;;;;;2.85;88.54;100364.72;4950776;28;20191;-46
2022/04/04 04:58:47;;;;;;;8.70;4.22;;;;;;;2.82;88.78;100353.28;4952960;28;20183;-48
2022/04/04 05:01:13;;;;;;;4.22;3.83;;;;;;;2.83;88.74;100345.34;4952561;28;20289;-48
2022/04/04 05:03:38;;;;;;;4.97;4.35;;;;;;;2.84;88.97;100331.25;4952099;28;20654;-44
2022/04/04 05:06:04;;;;;;;7.28;5.03;;;;;;;2.83;88.85;100337.41;4950666;28;20244;-47
2022/04/04 05:08:32;;;;;;;5.90;4.70;;;;;;;2.89;88.69;100334.69;4951091;29;20194;-47
2022/04/04 05:10:59;;;;;;;5.28;4.78;;;;;;;2.85;88.90;100332.97;4951429;29;20175;-47
2022/04/04 05:13:26;;;;;;;6.65;5.30;;;;;;;2.82;89.31;100317.16;4951005;29;20642;-48
2022/04/04 05:15:54;;;;;;;6.25;5.18;;;;;;;2.85;89.87;100313.59;4934746;29;20273;-47
2022/04/04 05:18:21;;;;;;;7.30;5.57;;;;;;;2.84;90.38;100291.56;4952438;28;20193;-46
2022/04/04 05:20:46;;;;;;;8.10;6.05;;;;;;;2.79;90.91;100293.38;4951067;29;20201;-46
2022/04/04 05:23:13;;;;;;;6.80;6.10;;;;;;;2.81;91.43;100293.38;4952092;28;20630;-49
2022/04/04 05:25:39;;;;;;;7.15;6.32;;;;;;;2.75;92.28;100277.56;4950795;28;20611;-48
2022/04/04 05:28:07;;;;;;;6.07;5.53;;;;;;;2.67;92.52;100280.34;4950876;29;20174;-46
2022/04/04 05:30:34;;;;;;;9.32;6.90;;;;;;;2.75;92.78;100275.78;4934781;29;20175;-47
2022/04/04 05:32:59;;;;;;;7.43;6.60;;;;;;;2.75;93.44;100256.41;4952171;28;20242;-46
2022/04/04 05:35:25;;;;;;;11.73;8.00;;;;;;;2.63;94.03;100246.91;4951497;28;20540;-43
2022/04/04 05:37:54;;;;;;;11.07;8.57;;;;;;;2.65;94.56;100253.91;4952133;28;20197;-41
2022/04/04 05:40:23;;;;;;;9.93;8.07;;;;;;;2.66;95.08;100249.50;4951868;29;20187;-48
2022/04/04 05:42:49;;;;;;;10.10;8.38;;;;;;;2.63;95.42;100238.97;4950708;29;20174;-43
2022/04/04 05:45:15;;;;;;;11.75;9.65;;;;;;;2.56;96.12;100227.63;4951506;28;20674;-43
2022/04/04 05:47:41;;;;;;;10.70;9.60;;;;;;;2.59;96.84;100234.63;4951980;28;20174;-43
2022/04/04 05:50:07;;;;;;;11.80;9.85;;;;;;;2.51;97.50;100224.16;4951891;28;20726;-43
2022/04/04 05:52:35;;;;;;;14.10;10.98;;;;;;;2.50;98.17;100218.91;4951693;29;20187;-44
2022/04/04 05:55:02;;;;;;;14.57;11.05;;;;;;;2.49;98.80;100218.00;4950445;29;20211;-45
2022/04/04 05:57:32;;;;;;;15.85;11.38;;;;;;;2.60;99.59;100205.53;4952122;28;20199;-44
2022/04/04 05:59:57;;;;;;;14.70;11.20;;;;;;;2.49;99.67;100202.13;4952081;29;20174;-43
2022/04/04 06:02:24;;;;;;;16.15;12.68;;;;;;;2.51;100.00;100175.69;4952073;29;20797;-43
2022/04/04 06:04:50;;;;;;;18.65;13.23;;;;;;;2.50;100.00;100187.19;4950390;29;20206;-44
2022/04/04 06:07:17;;;;;;;15.30;12.63;;;;;;;2.50;100.00;100182.75;4950724;28;20206;-42
2022/04/04 06:09:42;;;;;;;16.30;13.35;;;;;;;2.47;100.00;100175.75;4951648;29;20332;-42
2022/04/04 06:12:08;;;;;;;14.95;13.38;;;;;;;2.57;100.00;100172.94;4952059;29;20178;-42
2022/04/04 06:14:37;;;;;;;18.60;14.27;;;;;;;2.53;100.00;100155.38;4951992;28;20162;-43
2022/04/04 06:17:07;;;;;;;15.82;12.98;;;;;;;2.64;100.00;100151.66;4951393;28;20248;-45
2022/04/04 06:19:34;;;;;;;16.38;14.45;;;;;;;2.60;100.00;100143.81;4951973;29;20533;-44
2022/04/04 06:22:00;;;;;;;20.17;14.52;;;;;;;2.56;100.00;100135.06;4951616;29;20186;-45
2022/04/04 06:24:27;;;;;;;16.98;14.95;;;;;;;2.54;100.00;100134.22;4951528;29;20217;-44
2022/04/04 06:26:52;;;;;;;16.83;15.15;;;;;;;2.52;100.00;100124.56;4951270;28;20195;-43
2022/04/04 06:29:17;;;;;;;18.48;14.93;;;;;;;2.52;100.00;100111.34;4951787;29;20177;-44
2022/04/04 06:31:44;;;;;;;16.77;15.05;;;;;;;2.49;100.00;100106.97;4951761;29;20600;-42
2022/04/04 06:34:10;;;;;;;16.63;14.90;;;;;;;2.55;100.00;100093.63;4951629;28;20175;-44
2022/04/04 06:36:37;;;;;;;16.95;15.15;;;;;;;2.46;100.00;100089.38;4951572;28;20202;-44
2022/04/04 06:39:03;;;;;;;18.67;15.88;;;;;;;2.49;100.00;100067.28;4951704;29;20198;-42
2022/04/04 06:41:30;;;;;;;19.77;14.88;;;;;;;2.67;100.00;100077.56;4952264;29;20217;-44
2022/04/04 06:43:56;;;;;;;16.40;14.70;;;;;;;2.62;100.00;100054.72;4951786;29;20201;-43
2022/04/04 06:46:22;;;;;;;16.65;15.07;;;;;;;2.59;100.00;100045.09;4950622;28;20211;-43
2022/04/04 06:48:50;;;;;;;17.35;15.55;;;;;;;2.56;100.00;100054.84;4951450;29;20218;-44
2022/04/04 06:51:17;;;;;;;17.25;14.25;;;;;;;2.60;100.00;100032.72;4951313;29;20180;-46
2022/04/04 06:53:42;;;;;;;15.43;13.68;;;;;;;2.68;100.00;100029.03;4951474;29;20190;-47
2022/04/04 06:56:08;;;;;;;15.57;13.93;;;;;;;2.71;100.00;100008.72;4951023;28;20193;-43
2022/04/04 06:58:33;;;;;;;15.82;14.20;;;;;;;2.73;100.00;100005.16;4951439;28;20282;-45
2022/04/04 07:00:59;;;;;;;17.13;15.43;;;;;;;2.68;100.00;99996.44;4970025;28;20174;-47
2022/04/04 07:03:25;;;;;;;16.42;14.55;;;;;;;2.83;100.00;99987.34;4970241;28;20170;-46
2022/04/04 07:05:50;;;;;;;17.23;15.43;;;;;;;2.75;100.00;99986.63;4970336;28;20217;-43
2022/04/04 07:08:16;;;;;;;18.27;15.00;;;;;;;2.78;100.00;99963.63;4969899;28;20275;-43
2022/04/04 07:10:41;;;;;;;16.17;14.60;;;;;;;2.80;100.00;99968.88;4970448;28;20556;-44
2022/04/04 07:13:06;;;;;;;16.02;14.07;;;;;;;2.88;100.00;99954.56;4970680;28;20197;-44
2022/04/04 07:15:33;;;;;;;17.20;15.43;;;;;;;2.84;100.00;99960.88;4968050;28;20716;-44
2022/04/04 07:17:59;;;;;;;16.50;14.75;;;;;;;2.91;100.00;99945.72;4970431;28;20178;-44
2022/04/04 07:20:24;;;;;;;16.52;13.95;;;;;;;2.91;100.00;99950.13;4970277;28;20253;-43
2022/04/04 07:22:51;;;;;;;14.52;13.13;;;;;;;2.91;100.00;99927.22;4970304;28;20650;-43
2022/04/04 07:25:16;;;;;;;15.95;14.30;;;;;;;2.97;100.00;99920.91;4969959;28;20680;-45
2022/04/04 07:27:45;;;;;;;15.18;13.10;;;;;;;2.98;100.00;99909.44;4972231;28;20170;-45
2022/04/04 07:30:13;;;;;;;14.88;13.38;;;;;;;2.98;100.00;99894.41;4973596;28;20241;-44
2022/04/04 07:32:40;;;;;;;16.00;13.38;;;;;;;2.98;100.00;99918.22;4973521;28;20245;-45
2022/04/04 07:35:09;;;;;;;14.50;13.10;;;;;;;3.03;100.00;99879.28;4973110;28;20265;-44
2022/04/04 07:37:35;;;;;;;14.57;12.98;;;;;;;2.95;100.00;99894.50;4973854;28;20189;-44
2022/04/04 07:40:00;;;;;;;14.25;12.75;;;;;;;2.95;100.00;99870.69;4966942;28;20185;-45
2022/04/04 07:42:26;;;;;;;14.02;11.75;;;;;;;2.97;100.00;99860.03;4948686;28;20223;-45
2022/04/04 07:44:52;;;;;;;16.92;13.18;;;;;;;2.91;100.00;99865.47;4953230;28;20575;-45
2022/04/04 07:47:18;;;;;;;14.05;12.65;;;;;;;2.94;100.00;99846.91;4951922;28;20198;-43
2022/04/04 07:49:43;;;;;;;13.85;12.48;;;;;;;3.00;100.00;99846.78;4953428;29;20204;-46
2022/04/04 07:52:09;;;;;;;13.95;12.55;;;;;;;2.96;100.00;99843.31;4952760;29;20234;-44
2022/04/04 07:54:35;;;;;;;13.20;11.80;;;;;;;2.97;100.00;99823.00;4953757;29;20599;-46
2022/04/04 07:57:00;;;;;;;13.52;12.13;;;;;;;3.03;100.00;99839.59;4953177;28;20289;-45
2022/04/04 07:59:26;;;;;;;13.18;11.80;;;;;;;2.88;100.00;99809.06;4953992;28;20179;-44
2022/04/04 08:01:51;;;;;;;13.10;11.82;;;;;;;2.96;100.00;99800.13;4953369;28;20171;-45
2022/04/04 08:04:17;;;;;;;13.05;11.75;;;;;;;2.95;100.00;99817.78;4952696;28;20627;-46
2022/04/04 08:06:43;;;;;;;12.57;11.35;;;;;;;2.93;100.00;99794.88;4952840;28;20203;-47
2022/04/04 08:09:09;;;;;;;12.98;11.68;;;;;;;2.88;100.00;99782.63;4953366;28;20217;-46
2022/04/04 08:11:35;;;;;;;13.02;11.52;;;;;;;2.80;100.00;99771.38;4952943;28;20175;-47
2022/04/04 08:14:00;;;;;;;13.68;12.05;;;;;;;2.80;100.00;99792.53;4950614;28;20185;-44
2022/04/04 08:16:26;;;;;;;12.73;11.50;;;;;;;2.80;100.00;99762.53;4952379;28;20202;-45
2022/04/04 08:18:54;;;;;;;13.82;11.90;;;;;;;2.82;100.00;99769.56;4953301;29;20226;-45
2022/04/04 08:21:20;;;;;;;13.98;12.50;;;;;;;2.85;100.00;99753.59;4952661;29;20177;-46
2022/04/04 08:23:46;;;;;;;13.30;12.02;;;;;;;2.81;100.00;99746.66;4953174;28;20547;-45
2022/04/04 08:26:11;;;;;;;13.18;11.88;;;;;;;2.78;100.00;99745.88;4952833;28;20338;-45
2022/04/04 08:28:37;;;;;;;13.50;12.20;;;;;;;2.75;100.00;99730.91;4944990;28;20265;-44
2022/04/04 08:31:03;;;;;;;14.65;12.25;;;;;;;2.77;100.00;99723.81;4950466;28;20174;-45
2022/04/04 08:33:29;;;;;;;12.18;10.98;;;;;;;2.85;100.00;99735.09;4950859;28;20182;-44
2022/04/04 08:35:56;;;;;;;13.18;11.70;;;;;;;2.72;100.00;99723.06;4949240;28;20202;-45
2022/04/04 08:38:21;;;;;;;12.75;11.52;;;;;;;2.80;100.00;99718.47;4949601;28;21019;-45
2022/04/04 08:40:49;;;;;;;13.60;12.30;;;;;;;2.78;100.00;99700.91;4950281;28;20317;-45
2022/04/04 08:43:18;;;;;;;12.75;11.48;;;;;;;2.85;100.00;99708.63;4966203;28;20221;-45
2022/04/04 08:45:44;;;;;;;12.02;10.93;;;;;;;2.68;100.00;99687.88;4967965;28;20209;-43
2022/04/04 08:48:12;;;;;;;14.73;12.05;;;;;;;2.69;100.00;99691.44;4971109;28;20209;-45
2022/04/04 08:50:39;;;;;;;12.60;11.32;;;;;;;2.83;100.00;99684.00;4965297;28;20288;-45
2022/04/04 08:53:07;;;;;;;12.57;10.90;;;;;;;2.72;100.00;99693.13;4951407;28;20185;-44
2022/04/04 08:55:35;;;;;;;13.70;12.30;;;;;;;2.73;100.00;99692.19;4950760;28;20186;-45
2022/04/04 08:58:00;;;;;;;13.15;11.88;;;;;;;2.66;100.00;99667.69;4952333;28;20193;-44
2022/04/04 09:00:26;;;;;;;11.60;10.60;;;;;;;2.64;100.00;99661.56;4952560;28;20187;-45
2022/04/04 09:02:56;;;;;;;12.88;11.57;;;;;;;2.70;100.00;99664.06;4952615;28;20189;-45
2022/04/04 09:05:22;;;;;;;11.65;10.65;;;;;;;2.68;100.00;99644.72;4952069;28;20214;-44
2022/04/04 09:08:03;;;;;;;11.57;10.48;;;;;;;2.60;100.00;99641.38;4952526;28;20183;-45
2022/04/04 09:10:37;;;;;;;12.55;11.32;;;;;;;2.61;100.00;99644.00;4952735;28;20183;-43
2022/04/04 09:13:14;;;;;;;11.65;10.55;;;;;;;2.57;100.00;99647.63;4952561;28;20255;-45
2022/04/04 09:15:59;;;;;;;11.20;10.20;;;;;;;2.55;100.00;99619.50;4951791;28;20301;-44
2022/04/04 09:18:37;;;;;;;11.88;10.85;;;;;;;2.54;100.00;99628.34;4951321;29;20178;-45
2022/04/04 09:21:31;;;;;;;12.15;11.05;;;;;;;2.55;100.00;99615.06;4940225;28;20185;-46
2022/04/04 09:23:59;;;;;;;11.68;10.57;;;;;;;2.47;100.00;99590.59;4952144;28;20227;-45
2022/04/04 09:26:29;;;;;;;13.57;12.23;;;;;;;2.48;100.00;99598.47;4950341;28;20209;-46
2022/04/04 09:29:00;;;;;;;12.48;10.48;;;;;;;2.51;100.00;99596.69;4952093;28;20269;-44
2022/04/04 09:31:26;;;;;;;12.65;11.35;;;;;;;2.46;100.00;99592.38;4952431;28;20174;-46
2022/04/04 09:33:52;;;;;;;12.52;11.32;;;;;;;2.62;100.00;99584.03;4951891;29;20253;-46
2022/04/04 09:36:17;;;;;;;13.85;11.65;;;;;;;2.58;100.00;99574.44;4952275;28;20274;-46
2022/04/04 09:38:52;;;;;;;12.45;11.15;;;;;;;2.55;100.00;99562.19;4952090;28;20181;-45
2022/04/04 09:41:18;;;;;;;11.52;10.43;;;;;;;2.60;100.00;99564.69;4936259;29;20280;-45
2022/04/04 09:43:54;;;;;;;12.32;11.13;;;;;;;2.58;100.00;99546.25;4951937;28;20205;-46
2022/04/04 09:46:20;;;;;;;11.00;10.10;;;;;;;2.63;100.00;99538.19;4951341;28;20222;-47
2022/04/04 09:49:02;;;;;;;11.82;10.82;;;;;;;2.58;100.00;99548.91;4952149;28;20232;-46
2022/04/04 09:51:45;;;;;;;11.95;10.75;;;;;;;2.67;100.00;99516.06;4951846;28;20174;-46
2022/04/04 09:54:23;;;;;;;12.77;11.57;;;;;;;2.67;100.00;99535.44;4952039;28;20180;-45
2022/04/04 09:56:53;;;;;;;11.43;10.32;;;;;;;2.65;100.00;99516.09;4951269;28;20209;-46
2022/04/04 09:59:19;;;;;;;12.13;10.90;;;;;;;2.66;100.00;99493.16;4952095;28;20806;-46
2022/04/04 10:01:46;;;;;;;12.18;11.05;;;;;;;2.63;100.00;99498.53;4934890;29;20225;-47
2022/04/04 10:04:12;;;;;;;12.00;10.80;;;;;;;2.67;100.00;99497.56;4951608;28;20654;-45
2022/04/04 10:06:40;;;;;;;12.20;11.10;;;;;;;2.71;100.00;99479.81;4951720;28;20236;-45
2022/04/04 10:09:06;;;;;;;12.35;11.25;;;;;;;2.77;100.00;99472.56;4951490;28;20186;-46
2022/04/04 10:11:34;;;;;;;11.70;10.65;;;;;;;2.81;100.00;99487.44;4952319;28;20542;-45
2022/04/04 10:14:01;;;;;;;12.20;11.10;;;;;;;2.79;100.00;99461.94;4952176;28;20183;-43
2022/04/04 10:16:26;;;;;;;11.82;10.65;;;;;;;2.87;100.00;99447.59;4951666;28;20206;-42
2022/04/04 10:18:57;;;;;;;11.52;10.52;;;;;;;2.98;100.00;99454.34;4951946;28;20673;-41
2022/04/04 10:21:25;;;;;;;12.07;10.88;;;;;;;3.05;100.00;99446.19;4951656;28;20183;-43
2022/04/04 10:23:55;;;;;;;11.15;10.02;;;;;;;3.01;100.00;99455.13;4952045;28;20179;-42
2022/04/04 10:26:25;;;;;;;11.82;10.57;;;;;;;2.99;100.00;99437.56;4950319;28;20272;-43
2022/04/04 10:28:50;;;;;;;12.18;10.98;;;;;;;3.11;100.00;99426.63;4951447;28;20686;-43
2022/04/04 10:31:17;;;;;;;9.85;9.05;;;;;;;3.04;100.00;99441.81;4951824;28;20185;-43
2022/04/04 10:33:43;;;;;;;10.43;9.43;;;;;;;3.08;100.00;99429.34;4951542;28;20250;-42
2022/04/04 10:36:20;;;;;;;9.43;8.63;;;;;;;3.01;100.00;99433.09;4951572;28;20653;-43
2022/04/04 10:38:56;;;;;;;9.40;8.55;;;;;;;3.09;100.00;99410.78;4950719;28;20183;-42
2022/04/04 10:41:27;;;;;;;9.90;8.98;;;;;;;3.16;100.00;99402.66;4951745;28;20638;-44
2022/04/04 10:43:53;;;;;;;9.25;8.35;;;;;;;3.16;100.00;99365.59;4951564;28;20280;-44
2022/04/04 10:46:27;;;;;;;9.23;8.43;;;;;;;3.15;100.00;99404.44;4951158;28;20214;-42
2022/04/04 10:48:58;;;;;;;8.57;7.88;;;;;;;3.18;100.00;99382.31;4952508;28;20238;-43
2022/04/04 10:51:35;;;;;;;8.75;8.05;;;;;;;3.20;100.00;99404.28;4971185;28;20579;-44
2022/04/04 10:54:02;;;;;;;8.73;7.93;;;;;;;3.23;100.00;99396.25;4970896;28;20181;-45
2022/04/04 10:56:29;;;;;;;9.25;8.38;;;;;;;3.22;100.00;99381.31;4970436;28;20244;-42
2022/04/04 10:59:20;;;;;;;8.25;7.55;;;;;;;3.20;100.00;99380.47;5001971;28;20178;-42
2022/04/04 11:01:51;;;;;;;8.60;7.70;;;;;;;3.27;100.00;99369.63;4971580;28;20166;-43
2022/04/04 11:04:36;;;;;;;8.10;7.40;;;;;;;3.24;100.00;99364.44;4974416;28;20244;-43
2022/04/04 11:10:06;;;;;;;7.93;7.28;;;;;;;3.34;100.00;99350.91;4974439;28;20228;-41
2022/04/04 11:12:54;;;;;;;8.18;7.43;;;;;;;3.32;100.00;99336.84;4973984;28;20178;-42
2022/04/04 11:15:43;;;;;;;7.85;7.22;;;;;;;3.33;100.00;99328.88;4974421;28;20282;-42
2022/04/04 11:18:10;;;;;;;7.68;6.97;;;;;;;3.36;100.00;99319.97;4973215;28;20210;-43
2022/04/04 11:20:46;;;;;;;8.43;7.63;;;;;;;3.45;100.00;99330.25;4974266;28;20170;-44
2022/04/04 11:23:12;;;;;;;7.68;6.93;;;;;;;3.48;100.00;99314.28;5005414;28;20896;-43
2022/04/04 11:25:49;;;;;;;7.68;6.97;;;;;;;3.40;100.00;99316.31;4973418;28;20210;-41
2022/04/04 11:28:17;;;;;;;7.65;6.90;;;;;;;3.44;100.00;99320.59;4973984;28;20264;-42
2022/04/04 11:30:43;;;;;;;7.63;6.90;;;;;;;3.44;100.00;99292.31;4974360;28;20280;-42
2022/04/04 11:33:12;;;;;;;7.63;6.93;;;;;;;3.57;100.00;99299.84;4974197;28;20217;-42
2022/04/04 11:35:38;;;;;;;7.22;6.53;;;;;;;3.63;100.00;99289.91;4973561;28;20218;-44